createdAt,value
2022-09-09T00:02:07.400Z,86.60
2022-09-09T00:07:06.743Z,86.70
2022-09-09T00:12:05.386Z,86.90
2022-09-09T00:17:04.696Z,87.30
2022-09-09T00:22:03.333Z,87.80
2022-09-09T00:27:02.407Z,88.20
2022-09-09T00:32:03.304Z,88.40
2022-09-09T00:37:02.483Z,88.60
2022-09-09T00:42:01.331Z,89.20
2022-09-09T00:47:00.908Z,89.80
2022-09-09T00:51:59.364Z,90.30
2022-09-09T00:56:58.424Z,90.60
2022-09-09T01:01:59.122Z,90.80
2022-09-09T01:06:58.394Z,91.00
2022-09-09T01:11:58.371Z,91.10
2022-09-09T01:16:58.534Z,91.20
2022-09-09T01:21:58.180Z,91.10
2022-09-09T01:26:59.731Z,91.20
2022-09-09T01:31:59.016Z,91.30
2022-09-09T01:36:58.729Z,91.70
2022-09-09T01:41:57.699Z,91.70
2022-09-09T01:46:56.709Z,91.80
2022-09-09T01:51:57.255Z,91.70
2022-09-09T01:56:56.688Z,91.60
2022-09-09T02:01:55.871Z,91.80
2022-09-09T02:06:56.695Z,92.20
2022-09-09T02:11:57.444Z,92.50
2022-09-09T02:16:58.432Z,92.80
2022-09-09T02:21:58.896Z,93.00
2022-09-09T02:26:58.113Z,93.10
2022-09-09T02:31:59.749Z,93.10
2022-09-09T02:36:58.604Z,93.10
2022-09-09T02:41:59.314Z,92.90
2022-09-09T02:46:58.589Z,92.90
2022-09-09T02:51:57.991Z,92.80
2022-09-09T02:56:58.900Z,92.70
2022-09-09T03:01:58.469Z,92.70
2022-09-09T03:06:58.051Z,92.60
2022-09-09T03:11:57.949Z,92.40
2022-09-09T03:16:58.026Z,92.30
2022-09-09T03:21:58.003Z,92.40
2022-09-09T03:26:56.995Z,92.40
2022-09-09T03:31:56.725Z,92.30
2022-09-09T03:36:56.876Z,92.40
2022-09-09T03:41:55.952Z,92.50
2022-09-09T03:46:54.687Z,92.30
2022-09-09T03:51:53.536Z,92.30
2022-09-09T03:56:52.900Z,92.20
2022-09-09T04:01:51.839Z,92.20
2022-09-09T04:06:51.837Z,92.30
2022-09-09T04:11:50.851Z,92.30
2022-09-09T04:16:50.008Z,92.30
2022-09-09T04:21:51.871Z,92.50
2022-09-09T04:26:53.643Z,92.50
2022-09-09T04:31:53.916Z,92.50
2022-09-09T04:36:53.611Z,92.50
2022-09-09T04:41:52.768Z,92.40
2022-09-09T04:46:51.659Z,92.30
2022-09-09T04:51:51.451Z,92.40
2022-09-09T04:56:51.505Z,92.30
2022-09-09T05:01:51.163Z,92.30
2022-09-09T05:06:51.166Z,92.20
2022-09-09T05:11:53.113Z,92.10
2022-09-09T05:16:52.379Z,92.10
2022-09-09T05:21:53.481Z,92.10
2022-09-09T05:26:52.838Z,92.10
2022-09-09T05:31:53.594Z,92.20
2022-09-09T05:36:54.677Z,92.10
2022-09-09T05:41:54.359Z,92.00
2022-09-09T05:46:54.156Z,92.00
2022-09-09T05:51:54.801Z,92.00
2022-09-09T05:56:54.264Z,92.10
2022-09-09T06:01:55.608Z,92.10
2022-09-09T06:06:56.154Z,92.10
2022-09-09T06:11:56.161Z,91.90
2022-09-09T06:16:57.247Z,91.90
2022-09-09T06:21:57.020Z,91.70
2022-09-09T06:26:57.609Z,91.90
2022-09-09T06:31:58.483Z,91.70
2022-09-09T06:36:58.353Z,91.50
2022-09-09T06:42:02.533Z,91.60
2022-09-09T06:47:01.971Z,91.50
2022-09-09T06:52:01.744Z,91.70
2022-09-09T06:57:07.826Z,91.70
2022-09-09T07:02:05.598Z,91.70
2022-09-09T07:07:05.577Z,91.60
2022-09-09T07:12:07.480Z,91.50
2022-09-09T07:17:08.655Z,91.20
2022-09-09T07:22:08.077Z,90.90
2022-09-09T07:27:07.146Z,90.70
2022-09-09T07:32:08.586Z,90.20
2022-09-09T07:37:09.305Z,90.10
2022-09-09T07:42:11.153Z,90.00
2022-09-09T07:47:12.589Z,89.80
2022-09-09T07:52:15.928Z,87.20
2022-09-09T07:57:19.503Z,88.00
2022-09-09T08:02:19.014Z,85.50
2022-09-09T08:07:19.726Z,82.10
2022-09-09T08:12:19.460Z,79.40
2022-09-09T08:17:19.039Z,78.80
2022-09-09T08:22:18.856Z,77.80
2022-09-09T08:27:18.046Z,77.60
2022-09-09T08:32:18.684Z,76.30
2022-09-09T08:37:18.862Z,76.90
2022-09-09T08:42:18.334Z,77.20
2022-09-09T08:47:17.921Z,76.00
2022-09-09T08:52:17.433Z,74.50
2022-09-09T08:57:17.149Z,72.90
2022-09-09T09:02:17.715Z,72.20
2022-09-09T09:07:17.537Z,70.40
2022-09-09T09:12:17.260Z,70.90
2022-09-09T09:17:16.352Z,71.20
2022-09-09T09:22:16.384Z,70.40
2022-09-09T09:27:17.613Z,66.60
2022-09-09T09:32:16.914Z,66.10
2022-09-09T09:37:16.833Z,65.20
2022-09-09T09:42:18.904Z,65.20
2022-09-09T09:47:19.731Z,63.10
2022-09-09T09:52:19.152Z,63.60
2022-09-09T09:57:18.435Z,62.80
2022-09-09T10:02:18.423Z,62.20
2022-09-09T10:07:17.995Z,61.90
2022-09-09T10:12:16.816Z,60.20
2022-09-09T10:17:17.568Z,60.70
2022-09-09T10:22:16.854Z,60.60
2022-09-09T10:27:17.312Z,60.50
2022-09-09T10:32:17.104Z,60.70
2022-09-09T10:37:15.708Z,59.20
2022-09-09T10:42:14.660Z,58.80
2022-09-09T10:47:14.095Z,58.70
2022-09-09T10:52:13.208Z,58.10
2022-09-09T10:57:11.757Z,57.90
2022-09-09T11:02:10.651Z,57.50
2022-09-09T11:07:11.871Z,57.50
2022-09-09T11:12:10.932Z,57.20
2022-09-09T11:17:09.830Z,57.20
2022-09-09T11:22:08.927Z,57.70
2022-09-09T11:27:07.687Z,57.30
2022-09-09T11:32:06.685Z,58.50
2022-09-09T11:37:05.942Z,59.10
2022-09-09T11:42:04.880Z,60.40
2022-09-09T11:47:04.012Z,61.50
2022-09-09T11:52:02.915Z,65.00
2022-09-09T11:57:01.923Z,65.30
2022-09-09T12:02:01.510Z,65.10
2022-09-09T12:07:00.799Z,65.30
2022-09-09T12:12:00.905Z,63.40
2022-09-09T12:16:59.832Z,62.60
2022-09-09T12:21:58.868Z,62.50
2022-09-09T12:26:58.331Z,62.80
2022-09-09T12:31:57.556Z,63.90
2022-09-09T12:36:56.784Z,63.30
2022-09-09T12:41:57.695Z,61.30
2022-09-09T12:46:57.052Z,60.60
2022-09-09T12:51:57.871Z,60.00
2022-09-09T12:56:56.815Z,60.30
2022-09-09T13:01:55.916Z,60.20
2022-09-09T13:06:55.948Z,60.80
2022-09-09T13:11:56.878Z,63.40
2022-09-09T13:16:56.001Z,70.50
2022-09-09T13:21:55.020Z,71.90
2022-09-09T13:26:55.057Z,71.10
2022-09-09T13:31:54.338Z,70.80
2022-09-09T13:36:57.963Z,70.00
2022-09-09T13:41:55.402Z,70.30
2022-09-09T13:46:54.826Z,70.70
2022-09-09T13:51:54.532Z,70.50
2022-09-09T13:56:54.701Z,70.80
2022-09-09T14:01:53.808Z,70.60
2022-09-09T14:06:52.827Z,70.90
2022-09-09T14:11:51.840Z,70.90
2022-09-09T14:16:50.941Z,70.70
2022-09-09T14:21:51.059Z,69.50
2022-09-09T14:26:49.978Z,68.80
2022-09-09T14:31:48.871Z,69.60
2022-09-09T14:36:47.991Z,68.90
2022-09-09T14:41:46.813Z,69.20
2022-09-09T14:46:45.979Z,69.40
2022-09-09T14:51:44.763Z,70.50
2022-09-09T14:56:43.992Z,72.60
2022-09-09T15:01:42.833Z,73.70
2022-09-09T15:06:43.667Z,74.90
2022-09-09T15:11:44.196Z,76.60
2022-09-09T15:16:42.861Z,75.40
2022-09-09T15:21:41.971Z,74.80
2022-09-09T15:26:41.124Z,75.90
2022-09-09T15:31:40.110Z,76.60
2022-09-09T15:36:39.123Z,76.00
2022-09-09T15:41:37.974Z,75.10
2022-09-09T15:46:37.890Z,73.70
2022-09-09T15:51:42.338Z,73.80
2022-09-09T15:56:38.874Z,74.00
2022-09-09T16:01:38.382Z,74.30
2022-09-09T16:06:37.356Z,74.90
2022-09-09T16:11:36.212Z,75.40
2022-09-09T16:16:35.785Z,76.30
2022-09-09T16:21:35.676Z,77.20
2022-09-09T16:26:34.893Z,77.90
2022-09-09T16:31:34.503Z,77.50
2022-09-09T16:36:35.023Z,77.60
2022-09-09T16:41:34.300Z,78.00
2022-09-09T16:46:33.125Z,80.00
2022-09-09T16:51:32.083Z,80.40
2022-09-09T16:56:30.901Z,80.80
2022-09-09T17:01:30.041Z,82.00
2022-09-09T17:06:29.381Z,82.40
2022-09-09T17:11:28.172Z,83.10
2022-09-09T17:16:27.941Z,83.10
2022-09-09T17:21:27.225Z,83.80
2022-09-09T17:26:27.133Z,84.40
2022-09-09T17:31:26.541Z,84.40
2022-09-09T17:36:26.061Z,85.10
2022-09-09T17:41:25.095Z,84.90
2022-09-09T17:46:24.268Z,84.80
2022-09-09T17:51:25.459Z,85.30
2022-09-09T17:56:24.664Z,85.50
2022-09-09T18:01:24.217Z,85.70
2022-09-09T18:06:23.934Z,85.70
2022-09-09T18:11:23.238Z,86.20
2022-09-09T18:16:22.661Z,87.00
2022-09-09T18:21:22.962Z,87.60
2022-09-09T18:26:22.099Z,88.30
2022-09-09T18:31:22.977Z,88.70
2022-09-09T18:36:22.158Z,89.10
2022-09-09T18:41:21.566Z,89.40
2022-09-09T18:46:19.990Z,90.20
2022-09-09T18:51:19.257Z,90.40
2022-09-09T18:56:18.282Z,90.40
2022-09-09T19:01:17.316Z,90.50
2022-09-09T19:06:16.258Z,90.80
2022-09-09T19:11:15.757Z,90.80
2022-09-09T19:16:15.417Z,90.90
2022-09-09T19:21:14.080Z,90.80
2022-09-09T19:26:14.955Z,90.80
2022-09-09T19:31:15.186Z,91.00
2022-09-09T19:36:15.122Z,91.20
2022-09-09T19:41:14.250Z,91.30
2022-09-09T19:46:13.473Z,91.50
2022-09-09T19:51:12.768Z,91.70
2022-09-09T19:56:12.923Z,91.60
2022-09-09T20:01:12.181Z,91.60
2022-09-09T20:06:11.826Z,91.60
2022-09-09T20:11:11.180Z,91.60
2022-09-09T20:16:11.064Z,91.70
2022-09-09T20:21:10.189Z,91.60
2022-09-09T20:26:09.201Z,91.70
2022-09-09T20:31:08.285Z,92.00
2022-09-09T20:36:07.229Z,91.90
2022-09-09T20:41:06.260Z,92.00
2022-09-09T20:46:05.274Z,92.10
2022-09-09T20:51:04.836Z,92.10
2022-09-09T20:56:04.130Z,92.00
2022-09-09T21:01:04.525Z,92.10
2022-09-09T21:06:03.145Z,92.10
2022-09-09T21:11:02.643Z,92.00
2022-09-09T21:16:01.500Z,91.90
2022-09-09T21:21:00.224Z,91.90
2022-09-09T21:25:59.220Z,91.70
2022-09-09T21:30:58.242Z,91.70
2022-09-09T21:36:01.891Z,91.60
2022-09-09T21:40:58.264Z,91.50
2022-09-09T21:45:57.392Z,91.40
2022-09-09T21:50:56.316Z,91.50
2022-09-09T21:55:55.283Z,91.70
2022-09-09T22:00:57.386Z,91.80
2022-09-09T22:05:56.272Z,91.90
2022-09-09T22:10:55.234Z,92.10
2022-09-09T22:15:56.139Z,92.00
2022-09-09T22:20:55.318Z,92.10
2022-09-09T22:25:56.199Z,92.20
2022-09-09T22:30:55.248Z,92.20
2022-09-09T22:35:54.487Z,92.20
2022-09-09T22:40:53.367Z,92.20
2022-09-09T22:45:52.467Z,92.10
2022-09-09T22:50:51.177Z,92.00
2022-09-09T22:55:50.379Z,92.00
2022-09-09T23:00:49.207Z,92.10
2022-09-09T23:05:48.208Z,92.10
2022-09-09T23:10:47.226Z,92.10
2022-09-09T23:15:46.443Z,92.10
2022-09-09T23:20:45.711Z,92.10
2022-09-09T23:25:44.262Z,92.30
2022-09-09T23:30:43.283Z,92.10
2022-09-09T23:35:43.387Z,92.20
2022-09-09T23:40:44.210Z,92.10
2022-09-09T23:45:43.380Z,92.00
2022-09-09T23:50:42.297Z,92.10
2022-09-09T23:55:41.421Z,92.10
